createdAt,value
2023-03-07T00:00:44.107Z,6.85
2023-03-07T00:03:15.676Z,6.95
2023-03-07T00:05:42.312Z,6.87
2023-03-07T00:08:09.174Z,6.94
2023-03-07T00:10:35.610Z,6.94
2023-03-07T00:13:02.018Z,6.92
2023-03-07T00:15:28.430Z,6.76
2023-03-07T00:17:54.793Z,6.98
2023-03-07T00:20:21.196Z,6.84
2023-03-07T00:22:47.632Z,6.87
2023-03-07T00:25:17.729Z,6.96
2023-03-07T00:27:44.143Z,6.99
2023-03-07T00:30:12.501Z,6.94
2023-03-07T00:32:39.302Z,7.10
2023-03-07T00:35:06.191Z,7.11
2023-03-07T00:37:32.578Z,6.99
2023-03-07T00:39:58.953Z,6.75
2023-03-07T00:42:25.324Z,6.84
2023-03-07T00:44:51.715Z,6.72
2023-03-07T00:47:18.125Z,6.72
2023-03-07T00:49:44.586Z,6.84
2023-03-07T00:52:11.110Z,6.97
2023-03-07T00:54:37.696Z,6.90
2023-03-07T00:57:04.072Z,6.99
2023-03-07T00:59:30.482Z,7.17
2023-03-07T01:01:56.830Z,7.02
2023-03-07T01:04:23.306Z,7.06
2023-03-07T01:06:50.445Z,6.95
2023-03-07T01:09:16.960Z,6.93
2023-03-07T01:11:43.531Z,6.74
2023-03-07T01:14:10.236Z,6.81
2023-03-07T01:16:37.873Z,6.81
2023-03-07T01:19:06.865Z,6.75
2023-03-07T01:21:35.979Z,6.78
2023-03-07T01:24:02.513Z,6.78
2023-03-07T01:26:31.154Z,6.80
2023-03-07T01:28:59.467Z,6.81
2023-03-07T01:31:26.411Z,6.85
2023-03-07T01:33:53.672Z,6.75
2023-03-07T01:36:29.827Z,6.94
2023-03-07T01:39:21.960Z,7.05
2023-03-07T01:41:48.463Z,6.93
2023-03-07T01:44:20.426Z,7.02
2023-03-07T01:46:50.541Z,6.82
2023-03-07T01:49:38.956Z,6.73
2023-03-07T01:52:07.681Z,6.75
2023-03-07T01:54:36.554Z,6.82
2023-03-07T01:57:04.338Z,6.87
2023-03-07T01:59:44.601Z,7.01
2023-03-07T02:02:16.926Z,6.97
2023-03-07T02:04:51.375Z,7.02
2023-03-07T02:07:19.956Z,7.12
2023-03-07T02:09:47.784Z,7.06
2023-03-07T02:12:14.805Z,6.96
2023-03-07T02:14:43.996Z,6.96
2023-03-07T02:17:10.621Z,7.03
2023-03-07T02:19:58.259Z,7.00
2023-03-07T02:22:24.915Z,7.08
2023-03-07T02:24:58.245Z,7.13
2023-03-07T02:27:25.640Z,7.25
2023-03-07T02:29:52.550Z,7.24
2023-03-07T02:32:19.023Z,7.33
2023-03-07T02:34:45.456Z,7.22
2023-03-07T02:37:15.303Z,7.32
2023-03-07T02:39:43.032Z,7.33
2023-03-07T02:42:12.517Z,7.35
2023-03-07T02:44:38.965Z,7.51
2023-03-07T02:47:08.856Z,7.36
2023-03-07T02:49:36.265Z,7.26
2023-03-07T02:52:03.159Z,7.37
2023-03-07T02:54:29.613Z,7.37
2023-03-07T02:56:56.273Z,7.28
2023-03-07T02:59:22.680Z,7.39
2023-03-07T03:01:49.111Z,7.33
2023-03-07T03:04:15.543Z,7.18
2023-03-07T03:06:41.936Z,7.23
2023-03-07T03:09:08.569Z,7.40
2023-03-07T03:11:34.931Z,7.42
2023-03-07T03:14:01.314Z,7.20
2023-03-07T03:16:27.698Z,7.28
2023-03-07T03:18:54.168Z,7.14
2023-03-07T03:21:21.022Z,7.23
2023-03-07T03:23:47.380Z,7.26
2023-03-07T03:26:14.162Z,6.98
2023-03-07T03:28:40.593Z,6.84
2023-03-07T03:31:10.272Z,6.90
2023-03-07T03:33:37.067Z,7.02
2023-03-07T03:36:12.352Z,7.12
2023-03-07T03:38:39.258Z,7.05
2023-03-07T03:41:07.516Z,7.11
2023-03-07T03:43:34.789Z,7.13
2023-03-07T03:46:03.503Z,7.05
2023-03-07T03:48:30.086Z,6.85
2023-03-07T03:51:08.041Z,6.80
2023-03-07T03:53:36.262Z,6.80
2023-03-07T03:56:12.093Z,6.63
2023-03-07T03:58:39.254Z,6.71
2023-03-07T04:01:08.288Z,6.72
2023-03-07T04:03:36.396Z,6.82
2023-03-07T04:06:04.632Z,6.74
2023-03-07T04:08:32.013Z,6.58
2023-03-07T04:10:58.626Z,6.58
2023-03-07T04:13:25.236Z,6.51
2023-03-07T04:15:52.353Z,6.62
2023-03-07T04:18:19.199Z,6.99
2023-03-07T04:20:45.669Z,6.98
2023-03-07T04:23:12.151Z,6.83
2023-03-07T04:25:38.597Z,6.99
2023-03-07T04:28:05.076Z,7.01
2023-03-07T04:30:31.475Z,6.99
2023-03-07T04:32:57.847Z,6.77
2023-03-07T04:35:24.284Z,6.77
2023-03-07T04:37:50.680Z,6.63
2023-03-07T04:40:17.419Z,6.53
2023-03-07T04:42:43.770Z,6.67
2023-03-07T04:45:10.674Z,6.71
2023-03-07T04:47:37.077Z,6.66
2023-03-07T04:50:03.597Z,6.76
2023-03-07T04:52:30.012Z,6.66
2023-03-07T04:54:56.420Z,6.67
2023-03-07T04:57:22.803Z,6.80
2023-03-07T04:59:49.205Z,6.79
2023-03-07T05:02:15.560Z,6.71
2023-03-07T05:04:41.994Z,6.75
2023-03-07T05:07:09.045Z,6.90
2023-03-07T05:09:35.818Z,7.00
2023-03-07T05:12:02.224Z,6.78
2023-03-07T05:14:28.614Z,7.01
2023-03-07T05:16:55.115Z,6.89
2023-03-07T05:19:22.178Z,7.19
2023-03-07T05:21:49.217Z,7.15
2023-03-07T05:24:15.677Z,7.20
2023-03-07T05:26:42.145Z,7.10
2023-03-07T05:29:08.504Z,6.85
2023-03-07T05:31:36.199Z,6.67
2023-03-07T05:34:02.667Z,6.88
2023-03-07T05:36:29.102Z,6.89
2023-03-07T05:38:56.982Z,6.87
2023-03-07T05:41:23.586Z,6.77
2023-03-07T05:43:49.934Z,6.87
2023-03-07T05:46:16.329Z,6.79
2023-03-07T05:48:42.689Z,6.54
2023-03-07T05:51:09.053Z,6.55
2023-03-07T05:53:35.489Z,6.77
2023-03-07T05:56:01.861Z,6.60
2023-03-07T05:58:28.231Z,6.72
2023-03-07T06:00:54.631Z,6.72
2023-03-07T06:03:21.025Z,6.62
2023-03-07T06:05:50.796Z,6.46
2023-03-07T06:08:17.238Z,6.60
2023-03-07T06:10:43.650Z,6.46
2023-03-07T06:13:16.353Z,6.56
2023-03-07T06:15:43.006Z,6.66
2023-03-07T06:18:09.456Z,6.62
2023-03-07T06:20:35.825Z,6.49
2023-03-07T06:23:02.232Z,6.86
2023-03-07T06:25:28.860Z,6.91
2023-03-07T06:28:00.801Z,7.07
2023-03-07T06:30:28.442Z,6.64
2023-03-07T06:32:54.827Z,6.88
2023-03-07T06:35:21.421Z,6.78
2023-03-07T06:37:48.808Z,6.92
2023-03-07T06:40:15.566Z,6.71
2023-03-07T06:42:43.218Z,6.68
2023-03-07T06:45:10.012Z,6.76
2023-03-07T06:47:38.112Z,6.91
2023-03-07T06:50:06.188Z,6.83
2023-03-07T06:52:32.581Z,7.13
2023-03-07T06:55:00.545Z,7.17
2023-03-07T06:57:26.972Z,7.51
2023-03-07T06:59:53.362Z,7.15
2023-03-07T07:02:22.956Z,7.49
2023-03-07T07:04:49.549Z,7.50
2023-03-07T07:07:15.980Z,7.47
2023-03-07T07:09:43.788Z,7.35
2023-03-07T07:12:10.348Z,7.55
2023-03-07T07:14:36.849Z,7.76
2023-03-07T07:17:03.524Z,7.75
2023-03-07T07:19:30.124Z,7.76
2023-03-07T07:21:57.464Z,7.56
2023-03-07T07:24:25.402Z,7.97
2023-03-07T07:26:52.094Z,7.76
2023-03-07T07:29:18.579Z,8.01
2023-03-07T07:31:45.101Z,8.07
2023-03-07T07:34:12.132Z,8.04
2023-03-07T07:36:38.554Z,7.82
2023-03-07T07:39:05.841Z,8.18
2023-03-07T07:41:33.417Z,8.03
2023-03-07T07:43:59.976Z,7.63
2023-03-07T07:46:28.430Z,7.80
2023-03-07T07:48:55.465Z,7.87
2023-03-07T07:51:22.003Z,7.95
2023-03-07T07:53:48.510Z,7.78
2023-03-07T07:56:16.016Z,7.34
2023-03-07T07:58:44.044Z,7.61
2023-03-07T08:01:15.386Z,8.01
2023-03-07T08:03:41.816Z,7.92
2023-03-07T08:06:08.705Z,7.99
2023-03-07T08:08:35.165Z,8.03
2023-03-07T08:11:01.605Z,7.65
2023-03-07T08:13:28.476Z,7.73
2023-03-07T08:15:54.938Z,7.59
2023-03-07T08:18:21.376Z,8.01
2023-03-07T08:20:47.846Z,8.14
2023-03-07T08:23:14.289Z,8.27
2023-03-07T08:25:40.670Z,7.98
2023-03-07T08:28:07.054Z,8.23
2023-03-07T08:30:34.871Z,8.51
2023-03-07T08:33:01.311Z,8.66
2023-03-07T08:35:28.397Z,8.62
2023-03-07T08:37:59.604Z,8.49
2023-03-07T08:40:27.473Z,8.72
2023-03-07T08:42:55.186Z,8.58
2023-03-07T08:45:25.067Z,8.42
2023-03-07T08:47:55.566Z,8.09
2023-03-07T08:50:24.126Z,8.18
2023-03-07T08:52:51.043Z,8.32
2023-03-07T08:55:17.630Z,8.75
2023-03-07T08:57:45.771Z,8.76
2023-03-07T09:00:12.614Z,8.52
2023-03-07T09:02:39.694Z,8.14
2023-03-07T09:05:06.533Z,8.04
2023-03-07T09:07:33.950Z,8.18
2023-03-07T09:10:00.371Z,8.39
2023-03-07T09:12:26.778Z,8.56
2023-03-07T09:14:54.115Z,8.75
2023-03-07T09:17:20.840Z,8.35
2023-03-07T09:19:47.618Z,8.41
2023-03-07T09:22:14.060Z,8.65
2023-03-07T09:24:40.528Z,8.90
2023-03-07T09:27:06.950Z,8.49
2023-03-07T09:29:33.358Z,8.46
2023-03-07T09:32:02.911Z,8.61
2023-03-07T09:34:29.410Z,8.66
2023-03-07T09:36:56.106Z,8.46
2023-03-07T09:39:22.671Z,8.41
2023-03-07T09:41:58.158Z,8.57
2023-03-07T09:44:42.547Z,8.49
2023-03-07T09:47:37.102Z,8.73
2023-03-07T09:50:04.354Z,8.61
2023-03-07T09:52:35.337Z,8.60
2023-03-07T09:55:05.841Z,9.15
2023-03-07T09:57:34.621Z,9.16
2023-03-07T10:00:06.204Z,9.22
2023-03-07T10:02:35.297Z,9.15
2023-03-07T10:05:32.184Z,9.65
2023-03-07T10:08:01.650Z,9.21
2023-03-07T10:10:36.264Z,9.16
2023-03-07T10:13:15.811Z,9.24
2023-03-07T10:15:51.938Z,9.05
2023-03-07T10:18:34.589Z,8.78
2023-03-07T10:21:26.720Z,8.90
2023-03-07T10:24:02.552Z,8.87
2023-03-07T10:26:30.034Z,8.90
2023-03-07T10:28:57.916Z,9.07
2023-03-07T10:31:27.969Z,9.08
2023-03-07T10:33:54.978Z,9.31
2023-03-07T10:36:38.008Z,9.41
2023-03-07T10:39:25.414Z,9.48
2023-03-07T10:41:52.138Z,9.25
2023-03-07T10:44:19.844Z,8.90
2023-03-07T10:46:55.270Z,8.56
2023-03-07T10:49:26.591Z,8.46
2023-03-07T10:51:59.321Z,8.43
2023-03-07T10:54:32.990Z,8.74
2023-03-07T10:57:05.517Z,8.49
2023-03-07T10:59:32.021Z,8.66
2023-03-07T11:02:00.229Z,8.31
2023-03-07T11:04:43.465Z,8.65
2023-03-07T11:07:28.617Z,8.48
2023-03-07T11:09:56.690Z,8.66
2023-03-07T11:12:24.711Z,9.05
2023-03-07T11:14:55.164Z,8.78
2023-03-07T11:17:40.698Z,9.15
2023-03-07T11:20:25.898Z,9.31
2023-03-07T11:23:31.978Z,9.42
2023-03-07T11:26:15.166Z,10.07
2023-03-07T11:28:41.623Z,9.91
2023-03-07T11:31:17.569Z,10.17
2023-03-07T11:33:58.557Z,9.94
2023-03-07T11:36:33.453Z,10.59
2023-03-07T11:39:13.852Z,10.31
2023-03-07T11:41:42.403Z,10.45
2023-03-07T11:44:31.860Z,10.57
2023-03-07T11:47:20.224Z,10.46
2023-03-07T11:50:01.755Z,10.64
2023-03-07T11:52:49.815Z,10.62
2023-03-07T11:55:22.475Z,10.48
2023-03-07T11:58:16.514Z,10.72
2023-03-07T12:00:58.562Z,10.81
2023-03-07T12:03:48.260Z,10.98
2023-03-07T12:06:21.092Z,11.38
2023-03-07T12:09:12.605Z,11.55
2023-03-07T12:11:57.738Z,10.89
2023-03-07T12:14:36.373Z,10.92
2023-03-07T12:17:24.098Z,10.46
2023-03-07T12:20:29.656Z,10.33
2023-03-07T12:23:11.169Z,10.05
2023-03-07T12:25:43.926Z,10.42
2023-03-07T12:28:24.818Z,10.51
2023-03-07T12:31:11.416Z,10.37
2023-03-07T12:33:58.910Z,10.31
2023-03-07T12:36:36.544Z,9.80
2023-03-07T12:39:27.335Z,10.07
2023-03-07T12:42:05.862Z,9.98
2023-03-07T12:44:39.438Z,10.11
2023-03-07T12:47:15.508Z,10.25
2023-03-07T12:49:59.928Z,10.54
2023-03-07T12:52:34.500Z,10.80
2023-03-07T12:55:22.257Z,10.35
2023-03-07T12:57:55.821Z,10.71
2023-03-07T13:00:22.913Z,10.75
2023-03-07T13:03:01.101Z,10.45
2023-03-07T13:05:28.222Z,10.69
2023-03-07T13:07:55.037Z,10.02
2023-03-07T13:10:23.518Z,9.77
2023-03-07T13:12:52.019Z,9.49
2023-03-07T13:15:18.286Z,9.79
2023-03-07T13:17:44.776Z,9.89
2023-03-07T13:20:19.834Z,9.71
2023-03-07T13:22:46.305Z,9.68
2023-03-07T13:25:36.008Z,9.30
2023-03-07T13:28:04.154Z,9.24
2023-03-07T13:30:32.282Z,9.41
2023-03-07T13:33:03.780Z,9.60
2023-03-07T13:35:39.225Z,10.15
2023-03-07T13:38:44.307Z,10.39
2023-03-07T13:41:12.169Z,10.70
2023-03-07T13:43:44.560Z,10.99
2023-03-07T13:46:42.817Z,10.98
2023-03-07T13:49:09.234Z,11.08
2023-03-07T13:51:35.660Z,10.90
2023-03-07T13:54:03.889Z,10.90
2023-03-07T13:56:35.402Z,10.75
2023-03-07T13:59:13.956Z,10.40
2023-03-07T14:01:46.519Z,10.41
2023-03-07T14:04:32.890Z,10.32
2023-03-07T14:07:28.211Z,10.22
2023-03-07T14:10:19.553Z,9.95
2023-03-07T14:13:05.537Z,10.13
2023-03-07T14:15:57.202Z,9.91
2023-03-07T14:18:48.121Z,9.95
2023-03-07T14:21:43.951Z,9.99
2023-03-07T14:24:15.508Z,10.18
2023-03-07T14:26:48.421Z,10.36
2023-03-07T14:29:24.286Z,9.94
2023-03-07T14:31:53.138Z,10.06
2023-03-07T14:34:27.586Z,10.12
2023-03-07T14:37:11.972Z,10.45
2023-03-07T14:40:22.080Z,10.29
2023-03-07T14:42:53.252Z,10.42
2023-03-07T14:45:38.575Z,10.11
2023-03-07T14:48:10.960Z,10.46
2023-03-07T14:50:43.942Z,10.48
2023-03-07T14:53:18.055Z,9.69
2023-03-07T14:55:45.524Z,9.76
2023-03-07T14:58:21.980Z,9.79
2023-03-07T15:00:59.570Z,9.67
2023-03-07T15:03:26.602Z,9.42
2023-03-07T15:05:55.523Z,9.69
2023-03-07T15:08:25.878Z,9.59
2023-03-07T15:11:06.634Z,9.68
2023-03-07T15:14:06.985Z,9.06
2023-03-07T15:16:46.170Z,8.93
2023-03-07T15:19:19.151Z,9.08
2023-03-07T15:21:48.067Z,8.70
2023-03-07T15:24:22.767Z,8.61
2023-03-07T15:26:51.739Z,8.61
2023-03-07T15:29:20.638Z,8.60
2023-03-07T15:31:52.773Z,8.55
2023-03-07T15:34:26.187Z,8.70
2023-03-07T15:36:53.295Z,8.66
2023-03-07T15:39:34.432Z,8.63
2023-03-07T15:42:05.711Z,8.43
2023-03-07T15:44:33.200Z,8.68
2023-03-07T15:47:05.068Z,8.59
2023-03-07T15:49:41.926Z,8.44
2023-03-07T15:52:19.620Z,8.61
2023-03-07T15:54:50.187Z,8.42
2023-03-07T15:57:21.924Z,8.41
2023-03-07T16:00:14.868Z,8.24
2023-03-07T16:02:44.879Z,8.31
2023-03-07T16:05:21.977Z,8.40
2023-03-07T16:07:52.145Z,8.80
2023-03-07T16:10:19.442Z,8.90
2023-03-07T16:12:46.946Z,8.85
2023-03-07T16:15:14.415Z,8.80
2023-03-07T16:17:40.927Z,8.89
2023-03-07T16:20:22.020Z,8.77
2023-03-07T16:22:48.422Z,8.83
2023-03-07T16:25:15.920Z,8.62
2023-03-07T16:27:50.202Z,8.94
2023-03-07T16:30:19.460Z,8.93
2023-03-07T16:32:45.904Z,9.06
2023-03-07T16:35:15.615Z,9.00
2023-03-07T16:37:42.180Z,8.80
2023-03-07T16:40:09.797Z,8.82
2023-03-07T16:42:36.332Z,8.86
2023-03-07T16:45:05.082Z,8.73
2023-03-07T16:47:31.471Z,8.61
2023-03-07T16:49:58.952Z,8.51
2023-03-07T16:52:25.782Z,8.26
2023-03-07T16:54:52.265Z,8.17
2023-03-07T16:57:18.702Z,8.08
2023-03-07T16:59:46.934Z,8.05
2023-03-07T17:02:17.035Z,7.99
2023-03-07T17:04:44.519Z,7.75
2023-03-07T17:07:19.274Z,7.91
2023-03-07T17:09:45.696Z,7.90
2023-03-07T17:12:12.342Z,7.62
2023-03-07T17:14:39.215Z,7.70
2023-03-07T17:17:06.288Z,7.74
2023-03-07T17:19:33.127Z,7.88
2023-03-07T17:22:01.089Z,7.76
2023-03-07T17:24:29.016Z,7.90
2023-03-07T17:26:56.782Z,8.08
2023-03-07T17:29:37.007Z,7.85
2023-03-07T17:32:04.014Z,7.68
2023-03-07T17:34:32.434Z,7.56
2023-03-07T17:37:00.227Z,7.68
2023-03-07T17:39:29.407Z,7.60
2023-03-07T17:41:56.365Z,7.57
2023-03-07T17:44:22.985Z,7.59
2023-03-07T17:46:49.375Z,7.53
2023-03-07T17:49:15.752Z,7.26
2023-03-07T17:51:42.113Z,7.15
2023-03-07T17:54:08.880Z,7.16
2023-03-07T17:56:36.819Z,6.90
2023-03-07T17:59:04.173Z,7.00
2023-03-07T18:01:32.016Z,6.94
2023-03-07T18:03:58.502Z,6.84
2023-03-07T18:06:25.494Z,6.69
2023-03-07T18:08:52.034Z,6.53
2023-03-07T18:11:18.536Z,6.71
2023-03-07T18:13:45.137Z,6.70
2023-03-07T18:16:11.632Z,6.75
2023-03-07T18:18:47.654Z,6.61
2023-03-07T18:21:24.357Z,6.52
2023-03-07T18:23:51.984Z,6.62
2023-03-07T18:26:19.726Z,6.48
2023-03-07T18:28:47.549Z,6.43
2023-03-07T18:31:19.432Z,6.37
2023-03-07T18:33:50.747Z,6.42
2023-03-07T18:36:17.703Z,6.34
2023-03-07T18:38:44.183Z,6.30
2023-03-07T18:41:17.130Z,6.30
2023-03-07T18:43:43.495Z,6.21
2023-03-07T18:46:12.252Z,6.24
2023-03-07T18:48:39.084Z,6.19
2023-03-07T18:51:07.838Z,6.18
2023-03-07T18:53:34.896Z,6.20
2023-03-07T18:56:10.185Z,6.12
2023-03-07T18:58:36.903Z,6.14
2023-03-07T19:01:13.379Z,5.97
2023-03-07T19:03:40.402Z,5.94
2023-03-07T19:06:07.984Z,5.94
2023-03-07T19:08:34.386Z,5.94
2023-03-07T19:11:08.787Z,6.01
2023-03-07T19:13:35.314Z,6.12
2023-03-07T19:16:07.490Z,6.10
2023-03-07T19:18:34.857Z,6.03
2023-03-07T19:21:05.697Z,6.07
2023-03-07T19:23:32.337Z,6.00
2023-03-07T19:26:06.930Z,6.05
2023-03-07T19:28:33.796Z,6.07
2023-03-07T19:31:17.808Z,5.92
2023-03-07T19:33:45.380Z,5.92
2023-03-07T19:36:17.357Z,5.86
2023-03-07T19:38:43.724Z,5.80
2023-03-07T19:41:12.940Z,5.72
2023-03-07T19:43:39.955Z,5.74
2023-03-07T19:46:08.378Z,5.60
2023-03-07T19:48:35.329Z,5.68
2023-03-07T19:51:02.175Z,5.60
2023-03-07T19:53:28.790Z,5.61
2023-03-07T19:55:55.781Z,5.45
2023-03-07T19:58:22.438Z,5.48
2023-03-07T20:00:48.837Z,5.54
2023-03-07T20:03:17.406Z,5.44
2023-03-07T20:05:45.639Z,5.41
2023-03-07T20:08:12.361Z,5.56
2023-03-07T20:10:39.339Z,5.51
2023-03-07T20:13:06.414Z,5.65
2023-03-07T20:15:34.221Z,5.58
2023-03-07T20:18:02.283Z,5.55
2023-03-07T20:20:28.918Z,5.50
2023-03-07T20:22:56.669Z,5.47
2023-03-07T20:25:23.104Z,5.49
2023-03-07T20:27:49.783Z,5.35
2023-03-07T20:30:16.574Z,5.45
2023-03-07T20:32:42.977Z,5.38
2023-03-07T20:35:09.815Z,5.39
2023-03-07T20:37:36.185Z,5.51
2023-03-07T20:40:04.647Z,5.52
2023-03-07T20:42:31.216Z,5.50
2023-03-07T20:44:57.602Z,5.37
2023-03-07T20:47:24.007Z,5.25
2023-03-07T20:49:51.430Z,5.17
2023-03-07T20:52:17.867Z,5.21
2023-03-07T20:54:44.359Z,5.08
2023-03-07T20:57:10.859Z,5.09
2023-03-07T20:59:37.289Z,5.05
2023-03-07T21:02:05.544Z,5.14
2023-03-07T21:04:31.978Z,5.13
2023-03-07T21:06:58.422Z,5.22
2023-03-07T21:09:24.843Z,5.14
2023-03-07T21:11:51.273Z,5.21
2023-03-07T21:14:18.995Z,5.25
2023-03-07T21:16:45.776Z,4.91
2023-03-07T21:19:12.658Z,5.00
2023-03-07T21:21:39.802Z,4.98
2023-03-07T21:24:06.609Z,4.98
2023-03-07T21:26:35.844Z,5.07
2023-03-07T21:29:03.779Z,4.93
2023-03-07T21:31:32.581Z,5.17
2023-03-07T21:34:04.557Z,5.09
2023-03-07T21:36:33.987Z,5.00
2023-03-07T21:39:01.058Z,5.02
2023-03-07T21:41:27.654Z,5.00
2023-03-07T21:43:55.403Z,4.99
2023-03-07T21:46:22.111Z,5.03
2023-03-07T21:48:48.689Z,4.93
2023-03-07T21:51:15.248Z,4.90
2023-03-07T21:53:41.651Z,4.85
2023-03-07T21:56:10.265Z,4.98
2023-03-07T21:58:36.970Z,4.97
2023-03-07T22:01:17.929Z,4.84
2023-03-07T22:03:44.385Z,4.72
2023-03-07T22:06:13.106Z,4.73
2023-03-07T22:08:39.736Z,4.69
2023-03-07T22:11:07.828Z,4.67
2023-03-07T22:13:35.920Z,4.75
2023-03-07T22:16:05.380Z,4.63
2023-03-07T22:18:32.979Z,4.53
2023-03-07T22:20:59.776Z,4.43
2023-03-07T22:23:27.154Z,4.38
2023-03-07T22:25:53.612Z,4.37
2023-03-07T22:28:20.319Z,4.54
2023-03-07T22:30:47.259Z,4.43
2023-03-07T22:33:13.659Z,4.28
2023-03-07T22:35:40.084Z,4.35
2023-03-07T22:38:06.540Z,4.35
2023-03-07T22:40:32.930Z,4.21
2023-03-07T22:42:59.360Z,4.23
2023-03-07T22:45:25.876Z,4.14
2023-03-07T22:47:52.300Z,4.29
2023-03-07T22:50:18.704Z,4.18
2023-03-07T22:52:45.105Z,4.19
2023-03-07T22:55:11.457Z,4.04
2023-03-07T22:57:37.873Z,4.11
2023-03-07T23:00:04.768Z,4.29
2023-03-07T23:02:31.247Z,4.16
2023-03-07T23:04:57.632Z,4.13
2023-03-07T23:07:24.106Z,4.19
2023-03-07T23:09:50.489Z,4.02
2023-03-07T23:12:16.918Z,4.03
2023-03-07T23:14:43.330Z,4.00
2023-03-07T23:17:09.779Z,4.00
2023-03-07T23:19:36.327Z,4.12
2023-03-07T23:22:03.058Z,4.04
2023-03-07T23:24:29.446Z,4.20
2023-03-07T23:26:56.126Z,4.19
2023-03-07T23:29:22.677Z,4.04
2023-03-07T23:31:49.205Z,4.02
2023-03-07T23:34:17.939Z,4.10
2023-03-07T23:36:44.871Z,4.08
2023-03-07T23:39:11.698Z,4.22
2023-03-07T23:41:38.302Z,4.23
2023-03-07T23:44:05.121Z,4.44
2023-03-07T23:46:31.567Z,4.56
2023-03-07T23:48:58.140Z,4.36
2023-03-07T23:51:24.864Z,4.43
2023-03-07T23:53:51.311Z,4.16
2023-03-07T23:56:17.820Z,4.19
2023-03-07T23:58:44.250Z,4.21
